createdAt,value
2018-06-19T00:00:01.019Z,15.47
2018-06-19T00:00:05.341Z,15.46
2018-06-19T00:00:09.439Z,15.46
2018-06-19T00:00:13.653Z,15.46
2018-06-19T00:00:17.960Z,15.45
2018-06-19T00:00:22.271Z,15.45
2018-06-19T00:00:26.368Z,15.45
2018-06-19T00:00:30.581Z,15.45
2018-06-19T00:00:34.897Z,15.45
2018-06-19T00:00:39.207Z,15.45
2018-06-19T00:00:43.417Z,15.45
2018-06-19T00:00:47.624Z,15.43
2018-06-19T00:00:51.827Z,15.44
2018-06-19T00:00:55.923Z,15.44
2018-06-19T00:01:00.132Z,15.44
2018-06-19T00:01:04.135Z,15.44
2018-06-19T00:01:08.230Z,15.43
2018-06-19T00:01:12.436Z,15.43
2018-06-19T00:01:16.748Z,15.43
2018-06-19T00:01:21.074Z,15.43
2018-06-19T00:01:25.176Z,15.43
2018-06-19T00:01:29.378Z,15.43
2018-06-19T00:01:33.582Z,15.43
2018-06-19T00:01:37.786Z,15.43
2018-06-19T00:01:41.982Z,15.42
2018-06-19T00:01:46.078Z,15.43
2018-06-19T00:01:50.286Z,15.42
2018-06-19T00:01:54.598Z,15.43
2018-06-19T00:01:58.801Z,15.42
2018-06-19T00:02:02.792Z,15.42
2018-06-19T00:02:06.785Z,15.42
2018-06-19T00:02:10.985Z,15.42
2018-06-19T00:02:15.292Z,15.42
2018-06-19T00:02:19.494Z,15.42
2018-06-19T00:02:23.698Z,15.41
2018-06-19T00:02:28.013Z,15.41
2018-06-19T00:02:32.214Z,15.41
2018-06-19T00:02:36.204Z,15.41
2018-06-19T00:02:40.526Z,15.41
2018-06-19T00:02:44.527Z,15.41
2018-06-19T00:02:48.730Z,15.42
2018-06-19T00:02:53.043Z,15.41
2018-06-19T00:02:57.250Z,15.41
2018-06-19T00:03:01.454Z,15.41
2018-06-19T00:03:05.556Z,15.4
2018-06-19T00:03:09.761Z,15.41
2018-06-19T00:03:13.967Z,15.39
2018-06-19T00:03:18.277Z,15.41
2018-06-19T00:03:22.478Z,15.41
2018-06-19T00:03:26.695Z,15.4
2018-06-19T00:03:31.017Z,15.4
2018-06-19T00:03:35.119Z,15.39
2018-06-19T00:03:39.373Z,15.41
2018-06-19T00:03:43.590Z,15.39
2018-06-19T00:03:47.918Z,15.4
2018-06-19T00:03:52.224Z,15.38
2018-06-19T00:03:56.540Z,15.39
2018-06-19T00:04:00.861Z,15.39
2018-06-19T00:04:05.063Z,15.39
2018-06-19T00:04:09.185Z,15.38
2018-06-19T00:04:13.389Z,15.39
2018-06-19T00:04:17.592Z,15.39
2018-06-19T00:04:21.796Z,15.38
2018-06-19T00:04:26.029Z,15.39
2018-06-19T00:04:30.225Z,15.38
2018-06-19T00:04:34.219Z,15.38
2018-06-19T00:04:38.526Z,15.38
2018-06-19T00:04:42.842Z,15.38
2018-06-19T00:04:47.045Z,15.38
2018-06-19T00:04:51.246Z,15.38
2018-06-19T00:04:55.564Z,15.37
2018-06-19T00:04:59.871Z,15.38
2018-06-19T00:05:03.761Z,15.38
2018-06-19T00:05:07.643Z,15.37
2018-06-19T00:05:11.629Z,15.37
2018-06-19T00:05:15.836Z,15.37
2018-06-19T00:05:20.072Z,15.37
2018-06-19T00:05:24.167Z,15.38
2018-06-19T00:05:28.472Z,15.37
2018-06-19T00:05:32.675Z,15.37
2018-06-19T00:05:36.884Z,15.37
2018-06-19T00:05:41.194Z,15.37
2018-06-19T00:05:45.290Z,15.36
2018-06-19T00:05:49.599Z,15.36
2018-06-19T00:05:53.904Z,15.36
2018-06-19T00:05:58.106Z,15.36
2018-06-19T00:06:02.205Z,15.37
2018-06-19T00:06:06.411Z,15.36
2018-06-19T00:06:10.308Z,15.36
2018-06-19T00:06:14.531Z,15.36
2018-06-19T00:06:18.903Z,15.36
2018-06-19T00:06:23.110Z,15.35
2018-06-19T00:06:27.247Z,15.36
2018-06-19T00:06:31.448Z,15.35
2018-06-19T00:06:35.757Z,15.35
2018-06-19T00:06:39.965Z,15.35
2018-06-19T00:06:44.179Z,15.36
2018-06-19T00:06:48.284Z,15.35
2018-06-19T00:06:52.488Z,15.34
2018-06-19T00:06:56.696Z,15.35
2018-06-19T00:07:01.010Z,15.35
2018-06-19T00:07:05.222Z,15.35
2018-06-19T00:07:09.426Z,15.34
2018-06-19T00:07:13.626Z,15.33
2018-06-19T00:07:17.935Z,15.34
2018-06-19T00:07:22.143Z,15.34
2018-06-19T00:07:26.457Z,15.34
2018-06-19T00:07:30.653Z,15.34
2018-06-19T00:07:34.641Z,15.33
2018-06-19T00:07:38.842Z,15.33
2018-06-19T00:07:43.150Z,15.33
2018-06-19T00:07:47.356Z,15.33
2018-06-19T00:07:51.556Z,15.33
2018-06-19T00:07:55.872Z,15.33
2018-06-19T00:08:00.080Z,15.33
2018-06-19T00:08:04.387Z,15.33
2018-06-19T00:08:08.482Z,15.32
2018-06-19T00:08:12.591Z,15.32
2018-06-19T00:08:16.794Z,15.32
2018-06-19T00:08:20.892Z,15.32
2018-06-19T00:08:25.200Z,15.32
2018-06-19T00:08:29.509Z,15.32
2018-06-19T00:08:33.728Z,15.32
2018-06-19T00:08:37.828Z,15.32
2018-06-19T00:08:42.035Z,15.32
2018-06-19T00:08:46.350Z,15.32
2018-06-19T00:08:50.661Z,15.31
2018-06-19T00:08:54.868Z,15.31
2018-06-19T00:08:59.176Z,15.31
2018-06-19T00:09:03.266Z,15.31
2018-06-19T00:09:07.260Z,15.31
2018-06-19T00:09:11.572Z,15.31
2018-06-19T00:09:15.782Z,15.3
2018-06-19T00:09:20.106Z,15.3
2018-06-19T00:09:24.427Z,15.3
2018-06-19T00:09:28.310Z,15.3
2018-06-19T00:09:32.625Z,15.31
2018-06-19T00:09:36.612Z,15.3
2018-06-19T00:09:40.829Z,15.3
2018-06-19T00:09:45.145Z,15.3
2018-06-19T00:09:49.352Z,15.3
2018-06-19T00:09:53.445Z,15.29
2018-06-19T00:09:57.690Z,15.29
2018-06-19T00:10:02.050Z,15.29
2018-06-19T00:10:06.251Z,15.29
2018-06-19T00:10:10.358Z,15.29
2018-06-19T00:10:14.454Z,15.3
2018-06-19T00:10:18.657Z,15.29
2018-06-19T00:10:22.871Z,15.29
2018-06-19T00:10:27.073Z,15.28
2018-06-19T00:10:31.175Z,15.28
2018-06-19T00:10:35.378Z,15.28
2018-06-19T00:10:39.685Z,15.28
2018-06-19T00:10:44.039Z,15.28
2018-06-19T00:10:48.250Z,15.28
2018-06-19T00:10:52.345Z,15.27
2018-06-19T00:10:56.546Z,15.28
2018-06-19T00:11:00.642Z,15.27
2018-06-19T00:11:04.633Z,15.27
2018-06-19T00:11:08.727Z,15.28
2018-06-19T00:11:13.038Z,15.27
2018-06-19T00:11:17.134Z,15.27
2018-06-19T00:11:21.235Z,15.27
2018-06-19T00:11:25.549Z,15.27
2018-06-19T00:11:29.859Z,15.27
2018-06-19T00:11:33.957Z,15.27
2018-06-19T00:11:38.055Z,15.26
2018-06-19T00:11:42.360Z,15.26
2018-06-19T00:11:46.561Z,15.26
2018-06-19T00:11:50.663Z,15.26
2018-06-19T00:11:54.973Z,15.26
2018-06-19T00:11:58.960Z,15.26
2018-06-19T00:12:03.006Z,15.26
2018-06-19T00:12:07.105Z,15.26
2018-06-19T00:12:11.310Z,15.25
2018-06-19T00:12:15.512Z,15.25
2018-06-19T00:12:19.823Z,15.25
2018-06-19T00:12:24.133Z,15.24
2018-06-19T00:12:28.333Z,15.25
2018-06-19T00:12:32.646Z,15.25
2018-06-19T00:12:36.847Z,15.24
2018-06-19T00:12:41.159Z,15.25
2018-06-19T00:12:45.147Z,15.24
2018-06-19T00:12:49.349Z,15.24
2018-06-19T00:12:53.657Z,15.24
2018-06-19T00:12:57.862Z,15.24
2018-06-19T00:13:02.083Z,15.24
2018-06-19T00:13:06.292Z,15.24
2018-06-19T00:13:10.387Z,15.24
2018-06-19T00:13:14.593Z,15.23
2018-06-19T00:13:18.905Z,15.24
2018-06-19T00:13:23.106Z,15.24
2018-06-19T00:13:27.307Z,15.24
2018-06-19T00:13:31.513Z,15.23
2018-06-19T00:13:35.624Z,15.24
2018-06-19T00:13:39.930Z,15.23
2018-06-19T00:13:44.134Z,15.23
2018-06-19T00:13:48.343Z,15.22
2018-06-19T00:13:52.548Z,15.22
2018-06-19T00:13:56.865Z,15.22
2018-06-19T00:14:00.960Z,15.21
2018-06-19T00:14:05.057Z,15.22
2018-06-19T00:14:09.156Z,15.22
2018-06-19T00:14:13.266Z,15.22
2018-06-19T00:14:17.572Z,15.22
2018-06-19T00:14:21.880Z,15.22
2018-06-19T00:14:25.976Z,15.22
2018-06-19T00:14:30.076Z,15.21
2018-06-19T00:14:34.385Z,15.22
2018-06-19T00:14:38.376Z,15.22
2018-06-19T00:14:42.472Z,15.21
2018-06-19T00:14:46.784Z,15.21
2018-06-19T00:14:50.884Z,15.21
2018-06-19T00:14:54.980Z,15.21
2018-06-19T00:14:59.183Z,15.21
2018-06-19T00:15:03.175Z,15.2
2018-06-19T00:15:07.314Z,15.21
2018-06-19T00:15:11.407Z,15.21
2018-06-19T00:15:15.614Z,15.21
2018-06-19T00:15:19.706Z,15.2
2018-06-19T00:15:24.011Z,15.21
2018-06-19T00:15:28.326Z,15.21
2018-06-19T00:15:32.538Z,15.2
2018-06-19T00:15:36.846Z,15.2
2018-06-19T00:15:41.048Z,15.2
2018-06-19T00:15:45.267Z,15.21
2018-06-19T00:15:49.575Z,15.19
2018-06-19T00:15:53.777Z,15.19
2018-06-19T00:15:57.978Z,15.19
2018-06-19T00:16:02.228Z,15.19
2018-06-19T00:16:06.437Z,15.19
2018-06-19T00:16:10.651Z,15.19
2018-06-19T00:16:14.740Z,15.19
2018-06-19T00:16:19.050Z,15.2
2018-06-19T00:16:23.251Z,15.19
2018-06-19T00:16:27.245Z,15.19
2018-06-19T00:16:31.564Z,15.19
2018-06-19T00:16:35.774Z,15.18
2018-06-19T00:16:40.084Z,15.19
2018-06-19T00:16:44.453Z,15.19
2018-06-19T00:16:48.658Z,15.18
2018-06-19T00:16:52.750Z,15.18
2018-06-19T00:16:56.849Z,15.19
2018-06-19T00:17:01.049Z,15.19
2018-06-19T00:17:05.369Z,15.17
2018-06-19T00:17:09.566Z,15.18
2018-06-19T00:17:13.669Z,15.18
2018-06-19T00:17:17.984Z,15.18
2018-06-19T00:17:22.185Z,15.17
2018-06-19T00:17:26.188Z,15.17
2018-06-19T00:17:30.498Z,15.18
2018-06-19T00:17:34.596Z,15.18
2018-06-19T00:17:38.594Z,15.19
2018-06-19T00:17:42.807Z,15.18
2018-06-19T00:17:47.012Z,15.17
2018-06-19T00:17:51.236Z,15.17
2018-06-19T00:17:55.330Z,15.18
2018-06-19T00:17:59.534Z,15.17
2018-06-19T00:18:03.641Z,15.17
2018-06-19T00:18:07.740Z,15.18
2018-06-19T00:18:12.053Z,15.16
2018-06-19T00:18:16.258Z,15.17
2018-06-19T00:18:20.350Z,15.16
2018-06-19T00:18:24.573Z,15.17
2018-06-19T00:18:28.904Z,15.17
2018-06-19T00:18:33.003Z,15.17
2018-06-19T00:18:37.312Z,15.16
2018-06-19T00:18:41.625Z,15.16
2018-06-19T00:18:45.722Z,15.16
2018-06-19T00:18:49.921Z,15.16
2018-06-19T00:18:54.231Z,15.16
2018-06-19T00:18:58.438Z,15.16
2018-06-19T00:19:02.744Z,15.16
2018-06-19T00:19:06.850Z,15.17
2018-06-19T00:19:10.951Z,15.16
2018-06-19T00:19:15.156Z,15.16
2018-06-19T00:19:19.476Z,15.16
2018-06-19T00:19:23.359Z,15.16
2018-06-19T00:19:27.137Z,15.16
2018-06-19T00:19:31.441Z,15.16
2018-06-19T00:19:35.647Z,15.16
2018-06-19T00:19:39.752Z,15.16
2018-06-19T00:19:44.075Z,15.16
2018-06-19T00:19:48.396Z,15.16
2018-06-19T00:19:52.604Z,15.16
2018-06-19T00:19:56.914Z,15.15
2018-06-19T00:20:01.010Z,15.15
2018-06-19T00:20:05.000Z,15.15
2018-06-19T00:20:09.209Z,15.16
2018-06-19T00:20:13.413Z,15.16
2018-06-19T00:20:17.619Z,15.15
2018-06-19T00:20:21.933Z,15.15
2018-06-19T00:20:26.244Z,15.15
2018-06-19T00:20:30.556Z,15.15
2018-06-19T00:20:34.761Z,15.15
2018-06-19T00:20:39.070Z,15.15
2018-06-19T00:20:43.380Z,15.15
2018-06-19T00:20:47.478Z,15.15
2018-06-19T00:20:51.686Z,15.15
2018-06-19T00:20:55.993Z,15.15
2018-06-19T00:21:00.087Z,15.15
2018-06-19T00:21:03.972Z,15.14
2018-06-19T00:21:08.177Z,15.15
2018-06-19T00:21:12.487Z,15.14
2018-06-19T00:21:16.806Z,15.15
2018-06-19T00:21:20.908Z,15.14
2018-06-19T00:21:25.223Z,15.15
2018-06-19T00:21:29.426Z,15.15
2018-06-19T00:21:33.734Z,15.14
2018-06-19T00:21:38.037Z,15.14
2018-06-19T00:21:42.345Z,15.14
2018-06-19T00:21:46.648Z,15.14
2018-06-19T00:21:50.862Z,15.15
2018-06-19T00:21:55.068Z,15.14
2018-06-19T00:21:59.382Z,15.14
2018-06-19T00:22:03.399Z,15.14
2018-06-19T00:22:07.602Z,15.14
2018-06-19T00:22:11.705Z,15.14
2018-06-19T00:22:16.025Z,15.15
2018-06-19T00:22:20.232Z,15.14
2018-06-19T00:22:24.334Z,15.14
2018-06-19T00:22:28.645Z,15.14
2018-06-19T00:22:32.959Z,15.14
2018-06-19T00:22:37.275Z,15.14
2018-06-19T00:22:41.581Z,15.14
2018-06-19T00:22:45.846Z,15.14
2018-06-19T00:22:50.047Z,15.14
2018-06-19T00:22:54.355Z,15.14
2018-06-19T00:22:58.556Z,15.14
2018-06-19T00:23:02.700Z,15.14
2018-06-19T00:23:06.902Z,15.15
2018-06-19T00:23:10.995Z,15.14
2018-06-19T00:23:14.983Z,15.13
2018-06-19T00:23:19.296Z,15.14
2018-06-19T00:23:23.388Z,15.15
2018-06-19T00:23:27.701Z,15.13
2018-06-19T00:23:31.796Z,15.14
2018-06-19T00:23:36.005Z,15.14
2018-06-19T00:23:40.315Z,15.14
2018-06-19T00:23:44.633Z,15.14
2018-06-19T00:23:48.838Z,15.14
2018-06-19T00:23:53.151Z,15.14
2018-06-19T00:23:57.353Z,15.14
2018-06-19T00:24:01.576Z,15.14
2018-06-19T00:24:05.887Z,15.14
2018-06-19T00:24:10.200Z,15.14
2018-06-19T00:24:14.401Z,15.14
2018-06-19T00:24:18.499Z,15.13
2018-06-19T00:24:22.815Z,15.14
2018-06-19T00:24:26.910Z,15.14
2018-06-19T00:24:31.115Z,15.14
2018-06-19T00:24:35.319Z,15.15
2018-06-19T00:24:39.515Z,15.14
2018-06-19T00:24:43.825Z,15.14
2018-06-19T00:24:48.026Z,15.14
2018-06-19T00:24:52.123Z,15.15
2018-06-19T00:24:56.327Z,15.14
2018-06-19T00:25:00.429Z,15.15
2018-06-19T00:25:04.422Z,15.14
2018-06-19T00:25:08.624Z,15.15
2018-06-19T00:25:12.874Z,15.14
2018-06-19T00:25:17.077Z,15.15
2018-06-19T00:25:21.272Z,15.15
2018-06-19T00:25:25.475Z,15.13
2018-06-19T00:25:29.466Z,15.14
2018-06-19T00:25:33.675Z,15.14
2018-06-19T00:25:37.987Z,15.14
2018-06-19T00:25:42.199Z,15.14
2018-06-19T00:25:46.411Z,15.15
2018-06-19T00:25:50.725Z,15.14
2018-06-19T00:25:55.095Z,15.14
2018-06-19T00:25:59.407Z,15.14
2018-06-19T00:26:03.396Z,15.15
2018-06-19T00:26:07.603Z,15.14
2018-06-19T00:26:11.804Z,15.14
2018-06-19T00:26:15.904Z,15.14
2018-06-19T00:26:20.105Z,15.15
2018-06-19T00:26:24.411Z,15.14
2018-06-19T00:26:28.721Z,15.15
2018-06-19T00:26:32.930Z,15.15
2018-06-19T00:26:37.140Z,15.15
2018-06-19T00:26:41.345Z,15.15
2018-06-19T00:26:45.651Z,15.15
2018-06-19T00:26:49.748Z,15.15
2018-06-19T00:26:53.840Z,15.15
2018-06-19T00:26:58.145Z,15.15
2018-06-19T00:27:02.248Z,15.15
2018-06-19T00:27:06.452Z,15.15
2018-06-19T00:27:10.782Z,15.15
2018-06-19T00:27:14.881Z,15.14
2018-06-19T00:27:19.086Z,15.15
2018-06-19T00:27:23.290Z,15.15
2018-06-19T00:27:27.381Z,15.14
2018-06-19T00:27:31.377Z,15.15
2018-06-19T00:27:35.474Z,15.15
2018-06-19T00:27:39.681Z,15.15
2018-06-19T00:27:43.889Z,15.14
2018-06-19T00:27:48.096Z,15.15
2018-06-19T00:27:52.188Z,15.15
2018-06-19T00:27:56.180Z,15.15
2018-06-19T00:28:00.383Z,15.15
2018-06-19T00:28:04.377Z,15.15
2018-06-19T00:28:08.748Z,15.14
2018-06-19T00:28:12.801Z,15.15
2018-06-19T00:28:16.903Z,15.15
2018-06-19T00:28:21.116Z,15.15
2018-06-19T00:28:25.439Z,15.15
2018-06-19T00:28:29.642Z,15.15
2018-06-19T00:28:33.849Z,15.15
2018-06-19T00:28:37.943Z,15.15
2018-06-19T00:28:42.145Z,15.14
2018-06-19T00:28:46.239Z,15.15
2018-06-19T00:28:50.544Z,15.15
2018-06-19T00:28:54.537Z,15.14
2018-06-19T00:28:58.635Z,15.15
2018-06-19T00:29:02.946Z,15.15
2018-06-19T00:29:07.258Z,15.15
2018-06-19T00:29:11.463Z,15.15
2018-06-19T00:29:15.669Z,15.15
2018-06-19T00:29:19.969Z,15.15
2018-06-19T00:29:24.169Z,15.14
2018-06-19T00:29:28.376Z,15.14
2018-06-19T00:29:32.470Z,15.15
2018-06-19T00:29:36.670Z,15.14
2018-06-19T00:29:40.660Z,15.15
2018-06-19T00:29:44.751Z,15.15
2018-06-19T00:29:49.064Z,15.15
2018-06-19T00:29:53.269Z,15.15
2018-06-19T00:29:57.472Z,15.15
2018-06-19T00:30:01.669Z,15.14
2018-06-19T00:30:05.989Z,15.14
2018-06-19T00:30:10.091Z,15.15
2018-06-19T00:30:14.300Z,15.14
2018-06-19T00:30:18.397Z,15.15
2018-06-19T00:30:22.707Z,15.15
2018-06-19T00:30:27.017Z,15.15
2018-06-19T00:30:31.340Z,15.14
2018-06-19T00:30:35.542Z,15.15
2018-06-19T00:30:39.751Z,15.14
2018-06-19T00:30:43.953Z,15.14
2018-06-19T00:30:48.044Z,15.14
2018-06-19T00:30:52.365Z,15.15
2018-06-19T00:30:56.687Z,15.15
2018-06-19T00:31:00.894Z,15.14
2018-06-19T00:31:04.994Z,15.15
2018-06-19T00:31:08.984Z,15.15
2018-06-19T00:31:13.081Z,15.14
2018-06-19T00:31:17.184Z,15.13
2018-06-19T00:31:21.447Z,15.14
2018-06-19T00:31:25.755Z,15.14
2018-06-19T00:31:30.090Z,15.14
2018-06-19T00:31:34.481Z,15.14
2018-06-19T00:31:38.683Z,15.13
2018-06-19T00:31:42.986Z,15.14
2018-06-19T00:31:47.128Z,15.14
2018-06-19T00:31:51.403Z,15.14
2018-06-19T00:31:55.612Z,15.14
2018-06-19T00:31:59.830Z,15.13
2018-06-19T00:32:03.925Z,15.14
2018-06-19T00:32:08.133Z,15.14
2018-06-19T00:32:12.452Z,15.14
2018-06-19T00:32:16.442Z,15.14
2018-06-19T00:32:20.757Z,15.14
2018-06-19T00:32:25.069Z,15.14
2018-06-19T00:32:29.269Z,15.14
2018-06-19T00:32:33.474Z,15.13
2018-06-19T00:32:37.683Z,15.14
2018-06-19T00:32:41.890Z,15.14
2018-06-19T00:32:46.103Z,15.13
2018-06-19T00:32:50.095Z,15.12
2018-06-19T00:32:54.343Z,15.13
2018-06-19T00:32:58.654Z,15.13
2018-06-19T00:33:02.863Z,15.13
2018-06-19T00:33:06.963Z,15.13
2018-06-19T00:33:11.168Z,15.13
2018-06-19T00:33:15.371Z,15.12
2018-06-19T00:33:19.571Z,15.13
2018-06-19T00:33:23.886Z,15.12
2018-06-19T00:33:28.098Z,15.12
2018-06-19T00:33:32.310Z,15.11
2018-06-19T00:33:36.511Z,15.13
2018-06-19T00:33:40.826Z,15.12
2018-06-19T00:33:45.033Z,15.13
2018-06-19T00:33:49.236Z,15.12
2018-06-19T00:33:53.546Z,15.12
2018-06-19T00:33:57.858Z,15.12
2018-06-19T00:34:02.062Z,15.12
2018-06-19T00:34:06.054Z,15.12
2018-06-19T00:34:10.151Z,15.12
2018-06-19T00:34:14.354Z,15.12
2018-06-19T00:34:18.564Z,15.12
2018-06-19T00:34:22.763Z,15.12
2018-06-19T00:34:26.964Z,15.11
2018-06-19T00:34:31.279Z,15.11
2018-06-19T00:34:35.591Z,15.12
2018-06-19T00:34:39.903Z,15.12
2018-06-19T00:34:44.222Z,15.11
2018-06-19T00:34:48.427Z,15.11
2018-06-19T00:34:52.739Z,15.11
2018-06-19T00:34:56.946Z,15.12
2018-06-19T00:35:01.151Z,15.11
2018-06-19T00:35:05.466Z,15.11
2018-06-19T00:35:09.691Z,15.12
2018-06-19T00:35:13.906Z,15.12
2018-06-19T00:35:17.892Z,15.12
2018-06-19T00:35:22.203Z,15.11
2018-06-19T00:35:26.522Z,15.11
2018-06-19T00:35:30.609Z,15.1
2018-06-19T00:35:34.804Z,15.11
2018-06-19T00:35:39.111Z,15.11
2018-06-19T00:35:43.208Z,15.1
2018-06-19T00:35:47.522Z,15.09
2018-06-19T00:35:51.764Z,15.1
2018-06-19T00:35:56.088Z,15.1
2018-06-19T00:36:00.412Z,15.1
2018-06-19T00:36:04.619Z,15.09
2018-06-19T00:36:08.718Z,15.1
2018-06-19T00:36:12.928Z,15.09
2018-06-19T00:36:17.239Z,15.09
2018-06-19T00:36:21.546Z,15.08
2018-06-19T00:36:25.648Z,15.09
2018-06-19T00:36:29.853Z,15.08
2018-06-19T00:36:34.054Z,15.08
2018-06-19T00:36:38.369Z,15.08
2018-06-19T00:36:42.686Z,15.08
2018-06-19T00:36:46.887Z,15.08
2018-06-19T00:36:51.227Z,15.08
2018-06-19T00:36:55.429Z,15.07
2018-06-19T00:36:59.627Z,15.08
2018-06-19T00:37:03.833Z,15.08
2018-06-19T00:37:07.927Z,15.08
2018-06-19T00:37:12.241Z,15.07
2018-06-19T00:37:16.549Z,15.07
2018-06-19T00:37:20.752Z,15.06
2018-06-19T00:37:25.060Z,15.07
2018-06-19T00:37:29.270Z,15.07
2018-06-19T00:37:33.475Z,15.06
2018-06-19T00:37:37.784Z,15.06
2018-06-19T00:37:41.986Z,15.07
2018-06-19T00:37:46.186Z,15.06
2018-06-19T00:37:50.395Z,15.06
2018-06-19T00:37:54.596Z,15.06
2018-06-19T00:37:58.798Z,15.06
2018-06-19T00:38:02.902Z,15.06
2018-06-19T00:38:06.892Z,15.06
2018-06-19T00:38:10.989Z,15.05
2018-06-19T00:38:15.195Z,15.05
2018-06-19T00:38:19.294Z,15.05
2018-06-19T00:38:23.613Z,15.04
2018-06-19T00:38:27.707Z,15.05
2018-06-19T00:38:31.911Z,15.04
2018-06-19T00:38:36.125Z,15.04
2018-06-19T00:38:40.110Z,15.05
2018-06-19T00:38:44.319Z,15.04
2018-06-19T00:38:48.642Z,15.04
2018-06-19T00:38:52.961Z,15.04
2018-06-19T00:38:57.262Z,15.03
2018-06-19T00:39:01.470Z,15.04
2018-06-19T00:39:05.466Z,15.02
2018-06-19T00:39:09.570Z,15.02
2018-06-19T00:39:13.886Z,15.02
2018-06-19T00:39:18.091Z,15.03
2018-06-19T00:39:22.395Z,15.02
2018-06-19T00:39:26.492Z,15.02
2018-06-19T00:39:30.693Z,15.01
2018-06-19T00:39:34.898Z,15.01
2018-06-19T00:39:39.100Z,15.01
2018-06-19T00:39:43.416Z,15.01
2018-06-19T00:39:47.615Z,15.01
2018-06-19T00:39:51.933Z,15.01
2018-06-19T00:39:56.241Z,15.01
2018-06-19T00:40:00.363Z,15
2018-06-19T00:40:04.573Z,15.01
2018-06-19T00:40:08.670Z,15
2018-06-19T00:40:12.771Z,15.01
2018-06-19T00:40:16.870Z,15
2018-06-19T00:40:20.965Z,14.99
2018-06-19T00:40:25.062Z,15
2018-06-19T00:40:29.183Z,15
2018-06-19T00:40:33.391Z,14.99
2018-06-19T00:40:37.603Z,14.99
2018-06-19T00:40:41.923Z,15
2018-06-19T00:40:46.235Z,14.99
2018-06-19T00:40:50.545Z,14.99
2018-06-19T00:40:54.752Z,14.98
2018-06-19T00:40:59.064Z,14.99
2018-06-19T00:41:03.263Z,14.99
2018-06-19T00:41:07.362Z,14.99
2018-06-19T00:41:11.461Z,14.98
2018-06-19T00:41:15.777Z,14.98
2018-06-19T00:41:19.980Z,14.98
2018-06-19T00:41:24.233Z,14.98
2018-06-19T00:41:28.449Z,14.98
2018-06-19T00:41:32.654Z,14.98
2018-06-19T00:41:36.856Z,14.97
2018-06-19T00:41:41.058Z,14.97
2018-06-19T00:41:45.367Z,14.97
2018-06-19T00:41:49.573Z,14.97
2018-06-19T00:41:53.671Z,14.98
2018-06-19T00:41:57.882Z,14.97
2018-06-19T00:42:02.095Z,14.98
2018-06-19T00:42:06.407Z,14.97
2018-06-19T00:42:10.722Z,14.97
2018-06-19T00:42:14.985Z,14.96
2018-06-19T00:42:19.293Z,14.97
2018-06-19T00:42:23.612Z,14.96
2018-06-19T00:42:27.811Z,14.96
2018-06-19T00:42:32.019Z,14.96
2018-06-19T00:42:36.006Z,14.96
2018-06-19T00:42:40.325Z,14.96
2018-06-19T00:42:44.643Z,14.95
2018-06-19T00:42:48.845Z,14.95
2018-06-19T00:42:53.153Z,14.95
2018-06-19T00:42:57.251Z,14.95
2018-06-19T00:43:01.462Z,14.94
2018-06-19T00:43:05.670Z,14.95
2018-06-19T00:43:09.709Z,14.95
2018-06-19T00:43:13.913Z,14.95
2018-06-19T00:43:18.008Z,14.94
2018-06-19T00:43:22.213Z,14.94
2018-06-19T00:43:26.412Z,14.93
2018-06-19T00:43:30.718Z,14.94
2018-06-19T00:43:34.713Z,14.93
2018-06-19T00:43:39.023Z,14.94
2018-06-19T00:43:43.119Z,14.93
2018-06-19T00:43:47.371Z,14.93
2018-06-19T00:43:51.577Z,14.93
2018-06-19T00:43:55.570Z,14.93
2018-06-19T00:43:59.777Z,14.92
2018-06-19T00:44:03.992Z,14.92
2018-06-19T00:44:07.986Z,14.93
2018-06-19T00:44:12.200Z,14.92
2018-06-19T00:44:16.531Z,14.92
2018-06-19T00:44:20.849Z,14.91
2018-06-19T00:44:24.944Z,14.91
2018-06-19T00:44:29.148Z,14.91
2018-06-19T00:44:33.348Z,14.91
2018-06-19T00:44:37.333Z,14.91
2018-06-19T00:44:41.537Z,14.91
2018-06-19T00:44:45.745Z,14.91
2018-06-19T00:44:49.847Z,14.9
2018-06-19T00:44:54.150Z,14.91
2018-06-19T00:44:58.246Z,14.9
2018-06-19T00:45:02.448Z,14.89
2018-06-19T00:45:06.544Z,14.9
2018-06-19T00:45:10.755Z,14.89
2018-06-19T00:45:15.070Z,14.9
2018-06-19T00:45:19.273Z,14.89
2018-06-19T00:45:23.480Z,14.89
2018-06-19T00:45:27.690Z,14.89
2018-06-19T00:45:31.787Z,14.88
2018-06-19T00:45:35.888Z,14.89
2018-06-19T00:45:40.089Z,14.88
2018-06-19T00:45:44.398Z,14.88
2018-06-19T00:45:48.602Z,14.89
2018-06-19T00:45:52.804Z,14.88
2018-06-19T00:45:56.899Z,14.88
2018-06-19T00:46:01.107Z,14.89
2018-06-19T00:46:05.420Z,14.87
2018-06-19T00:46:09.413Z,14.87
2018-06-19T00:46:13.625Z,14.86
2018-06-19T00:46:17.721Z,14.86
2018-06-19T00:46:21.928Z,14.87
2018-06-19T00:46:26.129Z,14.87
2018-06-19T00:46:30.436Z,14.86
2018-06-19T00:46:34.530Z,14.86
2018-06-19T00:46:38.890Z,14.86
2018-06-19T00:46:43.210Z,14.85
2018-06-19T00:46:47.540Z,14.85
2018-06-19T00:46:51.850Z,14.84
2018-06-19T00:46:55.944Z,14.85
2018-06-19T00:47:00.151Z,14.85
2018-06-19T00:47:04.029Z,14.85
2018-06-19T00:47:08.121Z,14.85
2018-06-19T00:47:12.328Z,14.84
2018-06-19T00:47:16.634Z,14.84
2018-06-19T00:47:20.946Z,14.84
2018-06-19T00:47:25.260Z,14.84
2018-06-19T00:47:29.353Z,14.83
2018-06-19T00:47:33.715Z,14.83
2018-06-19T00:47:38.022Z,14.83
2018-06-19T00:47:42.329Z,14.82
2018-06-19T00:47:46.486Z,14.82
2018-06-19T00:47:50.585Z,14.83
2018-06-19T00:47:54.792Z,14.82
2018-06-19T00:47:58.888Z,14.82
2018-06-19T00:48:03.205Z,14.82
2018-06-19T00:48:07.310Z,14.81
2018-06-19T00:48:11.531Z,14.82
2018-06-19T00:48:15.623Z,14.8
2018-06-19T00:48:19.617Z,14.82
2018-06-19T00:48:23.816Z,14.8
2018-06-19T00:48:27.810Z,14.81
2018-06-19T00:48:32.131Z,14.81
2018-06-19T00:48:36.336Z,14.8
2018-06-19T00:48:40.429Z,14.8
2018-06-19T00:48:44.635Z,14.8
2018-06-19T00:48:48.736Z,14.8
2018-06-19T00:48:52.942Z,14.79
2018-06-19T00:48:57.249Z,14.79
2018-06-19T00:49:01.346Z,14.79
2018-06-19T00:49:05.550Z,14.79
2018-06-19T00:49:09.757Z,14.78
2018-06-19T00:49:13.968Z,14.79
2018-06-19T00:49:18.303Z,14.78
2018-06-19T00:49:22.624Z,14.79
2018-06-19T00:49:26.608Z,14.78
2018-06-19T00:49:30.805Z,14.78
2018-06-19T00:49:34.894Z,14.77
2018-06-19T00:49:39.204Z,14.77
2018-06-19T00:49:43.558Z,14.77
2018-06-19T00:49:47.719Z,14.77
2018-06-19T00:49:51.923Z,14.76
2018-06-19T00:49:56.126Z,14.77
2018-06-19T00:50:00.225Z,14.76
2018-06-19T00:50:04.371Z,14.76
2018-06-19T00:50:08.688Z,14.77
2018-06-19T00:50:12.897Z,14.75
2018-06-19T00:50:17.100Z,14.76
2018-06-19T00:50:21.306Z,14.76
2018-06-19T00:50:25.409Z,14.75
2018-06-19T00:50:29.668Z,14.74
2018-06-19T00:50:33.980Z,14.74
2018-06-19T00:50:38.186Z,14.75
2018-06-19T00:50:42.418Z,14.74
2018-06-19T00:50:46.516Z,14.75
2018-06-19T00:50:50.724Z,14.73
2018-06-19T00:50:55.040Z,14.73
2018-06-19T00:50:59.135Z,14.74
2018-06-19T00:51:03.340Z,14.73
2018-06-19T00:51:07.538Z,14.73
2018-06-19T00:51:11.741Z,14.73
2018-06-19T00:51:16.052Z,14.72
2018-06-19T00:51:20.368Z,14.71
2018-06-19T00:51:24.678Z,14.73
2018-06-19T00:51:28.885Z,14.73
2018-06-19T00:51:33.147Z,14.71
2018-06-19T00:51:37.353Z,14.71
2018-06-19T00:51:41.347Z,14.71
2018-06-19T00:51:45.676Z,14.7
2018-06-19T00:51:49.777Z,14.71
2018-06-19T00:51:53.988Z,14.71
2018-06-19T00:51:58.193Z,14.71
2018-06-19T00:52:02.397Z,14.71
2018-06-19T00:52:06.495Z,14.71
2018-06-19T00:52:10.701Z,14.7
2018-06-19T00:52:14.800Z,14.7
2018-06-19T00:52:19.136Z,14.7
2018-06-19T00:52:23.343Z,14.7
2018-06-19T00:52:27.550Z,14.69
2018-06-19T00:52:31.758Z,14.69
2018-06-19T00:52:35.965Z,14.69
2018-06-19T00:52:40.284Z,14.69
2018-06-19T00:52:44.486Z,14.69
2018-06-19T00:52:48.800Z,14.69
2018-06-19T00:52:53.113Z,14.68
2018-06-19T00:52:57.317Z,14.69
2018-06-19T00:53:01.634Z,14.68
2018-06-19T00:53:05.747Z,14.69
2018-06-19T00:53:09.947Z,14.68
2018-06-19T00:53:13.830Z,14.68
2018-06-19T00:53:18.152Z,14.68
2018-06-19T00:53:22.248Z,14.68
2018-06-19T00:53:26.452Z,14.67
2018-06-19T00:53:30.654Z,14.68
2018-06-19T00:53:34.967Z,14.68
2018-06-19T00:53:39.280Z,14.68
2018-06-19T00:53:43.380Z,14.68
2018-06-19T00:53:47.701Z,14.67
2018-06-19T00:53:51.798Z,14.67
2018-06-19T00:53:55.789Z,14.67
2018-06-19T00:54:00.043Z,14.67
2018-06-19T00:54:04.244Z,14.67
2018-06-19T00:54:08.565Z,14.67
2018-06-19T00:54:12.553Z,14.67